createdAt,value
2019-06-26T00:01:26.882Z,16.30
2019-06-26T00:06:31.518Z,16.32
2019-06-26T00:11:35.988Z,16.85
2019-06-26T00:16:40.624Z,16.82
2019-06-26T00:21:45.282Z,16.30
2019-06-26T00:26:49.851Z,15.58
2019-06-26T00:31:54.505Z,15.05
2019-06-26T00:36:59.141Z,15.45
2019-06-26T00:42:04.908Z,15.90
2019-06-26T00:47:09.622Z,17.10
2019-06-26T00:52:14.204Z,18.45
2019-06-26T00:57:18.819Z,17.77
2019-06-26T01:02:23.455Z,18.48
2019-06-26T01:07:28.071Z,17.00
2019-06-26T01:12:32.706Z,16.90
2019-06-26T01:17:37.380Z,17.60
2019-06-26T01:22:42.027Z,16.75
2019-06-26T01:27:46.592Z,18.02
2019-06-26T01:32:51.298Z,17.37
2019-06-26T01:37:55.981Z,16.55
2019-06-26T01:43:00.485Z,16.40
2019-06-26T01:48:05.056Z,16.87
2019-06-26T01:53:09.792Z,17.00
2019-06-26T01:58:14.409Z,17.17
2019-06-26T02:03:19.089Z,17.57
2019-06-26T02:08:23.649Z,16.85
2019-06-26T02:13:28.130Z,17.35
2019-06-26T02:18:36.885Z,17.00
2019-06-26T02:23:41.545Z,18.02
2019-06-26T02:28:46.084Z,16.85
2019-06-26T02:33:50.578Z,16.10
2019-06-26T02:38:55.244Z,16.25
2019-06-26T02:43:59.873Z,15.35
2019-06-26T02:49:04.504Z,17.12
2019-06-26T02:54:09.111Z,15.93
2019-06-26T02:59:13.780Z,15.23
2019-06-26T03:04:18.310Z,15.10
2019-06-26T03:09:23.071Z,14.63
2019-06-26T03:14:27.582Z,14.40
2019-06-26T03:19:32.131Z,16.42
2019-06-26T03:24:36.768Z,15.65
2019-06-26T03:29:41.452Z,15.90
2019-06-26T03:34:46.000Z,14.70
2019-06-26T03:39:50.568Z,14.87
2019-06-26T03:44:55.154Z,16.50
2019-06-26T03:49:59.743Z,14.65
2019-06-26T03:55:08.647Z,15.32
2019-06-26T04:00:13.892Z,15.18
2019-06-26T04:05:18.533Z,14.23
2019-06-26T04:10:23.171Z,14.73
2019-06-26T04:15:40.791Z,14.80
2019-06-26T04:20:34.275Z,14.73
2019-06-26T04:25:40.685Z,15.08
2019-06-26T04:30:45.282Z,15.50
2019-06-26T04:35:50.004Z,15.65
2019-06-26T04:40:54.802Z,14.98
2019-06-26T04:45:59.398Z,15.50
2019-06-26T04:51:03.965Z,15.78
2019-06-26T04:56:08.632Z,15.65
2019-06-26T05:01:13.331Z,16.35
2019-06-26T05:06:18.077Z,17.67
2019-06-26T05:11:22.699Z,17.67
2019-06-26T05:16:27.471Z,18.85
2019-06-26T05:21:32.099Z,19.48
2019-06-26T05:26:36.652Z,20.05
2019-06-26T05:31:41.265Z,17.87
2019-06-26T05:36:46.091Z,19.77
2019-06-26T05:41:50.748Z,20.45
2019-06-26T05:46:55.414Z,20.00
2019-06-26T05:52:02.075Z,20.12
2019-06-26T05:57:06.373Z,19.52
2019-06-26T06:02:11.068Z,19.60
2019-06-26T06:07:15.665Z,20.23
2019-06-26T06:12:21.412Z,26.20
2019-06-26T06:17:26.050Z,19.70
2019-06-26T06:22:30.650Z,18.52
2019-06-26T06:27:35.262Z,17.25
2019-06-26T06:32:39.883Z,15.88
2019-06-26T06:37:44.398Z,17.50
2019-06-26T06:42:48.977Z,16.87
2019-06-26T06:47:53.457Z,15.25
2019-06-26T06:52:58.141Z,18.05
2019-06-26T06:58:03.810Z,16.10
2019-06-26T07:03:08.375Z,16.10
2019-06-26T07:08:13.084Z,17.48
2019-06-26T07:13:17.704Z,20.90
2019-06-26T07:18:22.408Z,17.30
2019-06-26T07:23:27.105Z,15.70
2019-06-26T07:28:31.715Z,14.47
2019-06-26T07:33:37.308Z,15.55
2019-06-26T07:38:41.868Z,13.80
2019-06-26T07:43:46.519Z,13.83
2019-06-26T07:48:51.117Z,13.43
2019-06-26T07:53:55.685Z,18.77
2019-06-26T07:59:00.259Z,14.05
2019-06-26T08:04:04.995Z,14.07
2019-06-26T08:09:09.600Z,15.85
2019-06-26T08:14:14.151Z,16.00
2019-06-26T08:19:18.781Z,16.20
2019-06-26T08:24:23.367Z,16.35
2019-06-26T08:29:27.925Z,14.93
2019-06-26T08:34:32.393Z,17.12
2019-06-26T08:39:37.084Z,15.23
2019-06-26T08:44:43.137Z,18.35
2019-06-26T08:49:47.688Z,15.20
2019-06-26T08:54:52.312Z,14.87
2019-06-26T08:59:56.915Z,14.63
2019-06-26T09:05:01.459Z,16.48
2019-06-26T09:10:08.027Z,14.15
2019-06-26T09:15:13.109Z,13.62
2019-06-26T09:20:20.754Z,14.80
2019-06-26T09:25:25.428Z,13.83
2019-06-26T09:30:30.384Z,13.78
2019-06-26T09:35:35.123Z,14.23
2019-06-26T09:40:39.918Z,14.10
2019-06-26T09:45:45.641Z,13.30
2019-06-26T09:50:50.701Z,14.43
2019-06-26T09:55:55.371Z,15.00
2019-06-26T10:01:00.043Z,14.55
2019-06-26T10:06:04.637Z,13.85
2019-06-26T10:11:09.264Z,12.20
2019-06-26T10:16:13.945Z,11.28
2019-06-26T10:21:18.926Z,11.48
2019-06-26T10:26:23.600Z,11.28
2019-06-26T10:31:28.080Z,11.22
2019-06-26T10:36:32.797Z,10.63
2019-06-26T10:41:37.493Z,10.10
2019-06-26T10:46:42.127Z,10.55
2019-06-26T10:51:46.932Z,10.63
2019-06-26T10:56:51.547Z,10.82
2019-06-26T11:01:56.192Z,13.22
2019-06-26T11:07:00.891Z,10.53
2019-06-26T11:12:05.497Z,10.38
2019-06-26T11:17:10.120Z,11.35
2019-06-26T11:22:14.684Z,11.50
2019-06-26T11:27:19.223Z,11.03
2019-06-26T11:32:23.951Z,11.70
2019-06-26T11:37:28.582Z,10.70
2019-06-26T11:42:33.330Z,10.88
2019-06-26T11:47:38.268Z,10.93
2019-06-26T11:52:42.927Z,10.70
2019-06-26T11:57:47.971Z,10.88
2019-06-26T12:02:52.591Z,11.60
2019-06-26T12:07:57.264Z,10.63
2019-06-26T12:13:04.265Z,8.98
2019-06-26T12:18:08.134Z,10.00
2019-06-26T12:23:12.746Z,11.15
2019-06-26T12:28:17.500Z,11.30
2019-06-26T12:33:22.105Z,10.32
2019-06-26T12:38:26.693Z,10.58
2019-06-26T12:43:31.388Z,9.80
2019-06-26T12:48:37.484Z,9.58
2019-06-26T12:53:42.042Z,9.68
2019-06-26T12:58:46.678Z,10.35
2019-06-26T13:03:51.497Z,10.08
2019-06-26T13:08:56.231Z,10.35
2019-06-26T13:14:03.027Z,9.55
2019-06-26T13:19:07.117Z,9.73
2019-06-26T13:24:11.713Z,9.65
2019-06-26T13:29:17.952Z,9.33
2019-06-26T13:34:23.581Z,8.88
2019-06-26T13:39:28.210Z,10.10
2019-06-26T13:44:32.873Z,9.78
2019-06-26T13:49:37.427Z,9.78
2019-06-26T13:54:41.993Z,9.18
2019-06-26T13:59:46.671Z,9.08
2019-06-26T14:04:51.198Z,10.20
2019-06-26T14:09:55.765Z,7.87
2019-06-26T14:15:00.260Z,9.00
2019-06-26T14:20:06.481Z,8.68
2019-06-26T14:25:11.308Z,10.00
2019-06-26T14:30:16.291Z,8.98
2019-06-26T14:35:21.018Z,9.25
2019-06-26T14:40:25.654Z,8.53
2019-06-26T14:45:30.218Z,8.73
2019-06-26T14:50:34.866Z,10.53
2019-06-26T14:55:39.606Z,9.30
2019-06-26T15:00:44.236Z,9.43
2019-06-26T15:05:48.898Z,8.45
2019-06-26T15:10:53.461Z,9.10
2019-06-26T15:15:58.172Z,9.53
2019-06-26T15:21:02.821Z,9.43
2019-06-26T15:26:07.322Z,8.73
2019-06-26T15:31:12.036Z,10.10
2019-06-26T15:36:16.656Z,9.20
2019-06-26T15:41:21.452Z,8.85
2019-06-26T15:46:26.065Z,9.40
2019-06-26T15:51:30.693Z,9.95
2019-06-26T15:56:35.393Z,9.45
2019-06-26T16:01:39.878Z,10.30
2019-06-26T16:06:44.431Z,9.50
2019-06-26T16:11:49.014Z,9.58
2019-06-26T16:16:55.341Z,10.05
2019-06-26T16:21:59.877Z,10.45
2019-06-26T16:27:08.507Z,9.70
2019-06-26T16:32:14.021Z,10.48
2019-06-26T16:37:18.647Z,10.40
2019-06-26T16:42:23.137Z,10.40
2019-06-26T16:47:27.910Z,10.93
2019-06-26T16:52:47.837Z,11.00
2019-06-26T16:57:38.869Z,11.08
2019-06-26T17:02:43.507Z,12.13
2019-06-26T17:07:48.207Z,11.53
2019-06-26T17:12:52.779Z,12.23
2019-06-26T17:17:57.403Z,12.37
2019-06-26T17:23:06.013Z,11.43
2019-06-26T17:28:09.859Z,11.93
2019-06-26T17:33:14.432Z,12.43
2019-06-26T17:38:19.120Z,12.47
2019-06-26T17:43:23.711Z,13.40
2019-06-26T17:48:28.380Z,13.95
2019-06-26T17:53:32.965Z,12.58
2019-06-26T17:58:37.584Z,13.85
2019-06-26T18:03:42.176Z,13.78
2019-06-26T18:08:46.752Z,14.90
2019-06-26T18:13:51.266Z,13.83
2019-06-26T18:18:55.876Z,14.63
2019-06-26T18:24:00.381Z,14.28
2019-06-26T18:29:05.145Z,15.13
2019-06-26T18:34:09.842Z,14.03
2019-06-26T18:39:14.462Z,15.00
2019-06-26T18:44:18.936Z,14.65
2019-06-26T18:49:23.514Z,14.83
2019-06-26T18:54:28.062Z,14.23
2019-06-26T18:59:32.689Z,14.18
2019-06-26T19:04:37.385Z,14.63
2019-06-26T19:09:42.158Z,14.95
2019-06-26T19:14:46.954Z,15.00
2019-06-26T19:19:52.678Z,15.40
2019-06-26T19:24:57.453Z,14.85
2019-06-26T19:30:04.815Z,15.10
2019-06-26T19:35:19.227Z,13.48
2019-06-26T19:40:17.778Z,14.20
2019-06-26T19:45:22.874Z,13.88
2019-06-26T19:50:27.597Z,13.90
2019-06-26T19:55:32.361Z,12.58
2019-06-26T20:00:37.013Z,12.93
2019-06-26T20:05:41.858Z,12.58
2019-06-26T20:10:47.183Z,13.15
2019-06-26T20:15:52.377Z,13.80
2019-06-26T20:20:58.278Z,13.08
2019-06-26T20:26:04.172Z,13.43
2019-06-26T20:31:19.532Z,13.25
2019-06-26T20:36:27.789Z,13.18
2019-06-26T20:41:33.071Z,13.05
2019-06-26T20:59:18.989Z,13.10
2019-06-26T21:04:23.990Z,14.15
2019-06-26T21:09:28.788Z,13.50
2019-06-26T21:14:33.903Z,14.70
2019-06-26T21:19:38.717Z,14.93
2019-06-26T21:24:43.310Z,14.45
2019-06-26T21:29:47.993Z,14.00
2019-06-26T21:34:57.609Z,13.08
2019-06-26T21:40:02.205Z,16.60
2019-06-26T21:45:07.406Z,16.62
2019-06-26T21:50:13.245Z,14.20
2019-06-26T21:55:33.226Z,14.13
2019-06-26T22:00:42.516Z,15.70
2019-06-26T22:06:05.606Z,18.80
2019-06-26T22:11:11.794Z,18.80
2019-06-26T22:16:16.581Z,17.20
2019-06-26T22:21:21.208Z,18.00
2019-06-26T22:26:25.842Z,17.17
2019-06-26T22:31:30.640Z,16.87
2019-06-26T22:36:35.281Z,18.15
2019-06-26T22:41:39.988Z,17.50
2019-06-26T22:46:44.584Z,19.77
2019-06-26T22:51:49.603Z,17.65
2019-06-26T22:56:54.159Z,18.42
2019-06-26T23:01:58.812Z,19.00
2019-06-26T23:07:03.403Z,18.65
2019-06-26T23:12:08.063Z,19.12
2019-06-26T23:17:13.776Z,18.82
2019-06-26T23:22:18.355Z,19.62
2019-06-26T23:27:22.985Z,17.57
2019-06-26T23:32:27.543Z,17.67
2019-06-26T23:37:32.154Z,16.93
2019-06-26T23:42:36.874Z,16.93
2019-06-26T23:47:41.471Z,17.15
2019-06-26T23:52:46.043Z,15.30
2019-06-26T23:57:58.885Z,14.33
